sensor_id;sensor_type;location;lat;lon;timestamp;P1;durP1;ratioP1;P2;durP2;ratioP2
53253;SDS011;39148;53.332;6.922;2022-10-16T00:01:56;3.72;;;0.70;;
53253;SDS011;39148;53.332;6.922;2022-10-16T00:04:22;2.00;;;0.50;;
53253;SDS011;39148;53.332;6.922;2022-10-16T00:06:48;3.80;;;0.90;;
53253;SDS011;39148;53.332;6.922;2022-10-16T00:09:13;3.78;;;0.80;;
53253;SDS011;39148;53.332;6.922;2022-10-16T00:11:39;3.63;;;0.70;;
53253;SDS011;39148;53.332;6.922;2022-10-16T00:14:07;3.40;;;0.75;;
53253;SDS011;39148;53.332;6.922;2022-10-16T00:16:38;3.35;;;0.90;;
53253;SDS011;39148;53.332;6.922;2022-10-16T00:19:04;4.85;;;0.77;;
53253;SDS011;39148;53.332;6.922;2022-10-16T00:21:30;5.85;;;1.02;;
53253;SDS011;39148;53.332;6.922;2022-10-16T00:24:01;7.40;;;1.00;;
53253;SDS011;39148;53.332;6.922;2022-10-16T00:26:29;5.38;;;0.90;;
53253;SDS011;39148;53.332;6.922;2022-10-16T00:28:56;4.05;;;1.00;;
53253;SDS011;39148;53.332;6.922;2022-10-16T00:31:22;4.07;;;1.02;;
53253;SDS011;39148;53.332;6.922;2022-10-16T00:33:49;3.47;;;1.02;;
53253;SDS011;39148;53.332;6.922;2022-10-16T00:36:17;1.52;;;0.45;;
53253;SDS011;39148;53.332;6.922;2022-10-16T00:38:45;7.15;;;0.95;;
53253;SDS011;39148;53.332;6.922;2022-10-16T00:41:12;4.65;;;0.80;;
53253;SDS011;39148;53.332;6.922;2022-10-16T00:46:17;4.38;;;0.90;;
53253;SDS011;39148;53.332;6.922;2022-10-16T00:49:32;3.03;;;0.70;;
53253;SDS011;39148;53.332;6.922;2022-10-16T00:51:36;4.72;;;0.93;;
53253;SDS011;39148;53.332;6.922;2022-10-16T00:54:08;3.58;;;0.75;;
53253;SDS011;39148;53.332;6.922;2022-10-16T00:56:45;3.25;;;0.88;;
53253;SDS011;39148;53.332;6.922;2022-10-16T00:59:54;4.13;;;0.90;;
53253;SDS011;39148;53.332;6.922;2022-10-16T01:02:04;2.95;;;0.80;;
53253;SDS011;39148;53.332;6.922;2022-10-16T01:04:32;3.70;;;0.98;;
53253;SDS011;39148;53.332;6.922;2022-10-16T01:15:25;7.95;;;1.20;;
53253;SDS011;39148;53.332;6.922;2022-10-16T01:18:13;3.08;;;0.73;;
53253;SDS011;39148;53.332;6.922;2022-10-16T01:26:11;3.65;;;0.93;;
53253;SDS011;39148;53.332;6.922;2022-10-16T01:31:36;2.97;;;0.70;;
53253;SDS011;39148;53.332;6.922;2022-10-16T01:34:06;2.78;;;0.70;;
53253;SDS011;39148;53.332;6.922;2022-10-16T01:36:39;2.80;;;0.65;;
53253;SDS011;39148;53.332;6.922;2022-10-16T01:39:15;3.92;;;0.70;;
53253;SDS011;39148;53.332;6.922;2022-10-16T01:41:47;2.67;;;0.70;;
53253;SDS011;39148;53.332;6.922;2022-10-16T01:44:20;3.85;;;0.80;;
53253;SDS011;39148;53.332;6.922;2022-10-16T01:46:50;4.47;;;1.00;;
53253;SDS011;39148;53.332;6.922;2022-10-16T01:49:17;4.35;;;0.95;;
53253;SDS011;39148;53.332;6.922;2022-10-16T01:51:44;3.67;;;0.80;;
53253;SDS011;39148;53.332;6.922;2022-10-16T01:54:13;3.80;;;0.73;;
53253;SDS011;39148;53.332;6.922;2022-10-16T01:56:40;3.33;;;0.93;;
53253;SDS011;39148;53.332;6.922;2022-10-16T01:59:09;3.60;;;0.70;;
53253;SDS011;39148;53.332;6.922;2022-10-16T02:01:39;1.95;;;0.68;;
53253;SDS011;39148;53.332;6.922;2022-10-16T02:04:09;3.10;;;0.80;;
53253;SDS011;39148;53.332;6.922;2022-10-16T02:06:42;2.80;;;0.68;;
53253;SDS011;39148;53.332;6.922;2022-10-16T02:09:08;2.90;;;0.70;;
53253;SDS011;39148;53.332;6.922;2022-10-16T02:11:34;3.58;;;0.77;;
53253;SDS011;39148;53.332;6.922;2022-10-16T02:14:04;2.95;;;0.85;;
53253;SDS011;39148;53.332;6.922;2022-10-16T02:16:35;2.38;;;0.70;;
53253;SDS011;39148;53.332;6.922;2022-10-16T02:19:08;2.05;;;0.60;;
53253;SDS011;39148;53.332;6.922;2022-10-16T02:29:40;2.97;;;0.70;;
53253;SDS011;39148;53.332;6.922;2022-10-16T02:32:10;3.35;;;0.80;;
53253;SDS011;39148;53.332;6.922;2022-10-16T02:34:38;3.53;;;0.98;;
53253;SDS011;39148;53.332;6.922;2022-10-16T02:37:05;2.60;;;0.60;;
53253;SDS011;39148;53.332;6.922;2022-10-16T02:39:32;3.28;;;0.90;;
53253;SDS011;39148;53.332;6.922;2022-10-16T02:41:59;4.40;;;1.10;;
53253;SDS011;39148;53.332;6.922;2022-10-16T02:44:25;3.17;;;0.68;;
53253;SDS011;39148;53.332;6.922;2022-10-16T02:46:50;2.30;;;0.50;;
53253;SDS011;39148;53.332;6.922;2022-10-16T02:49:16;3.92;;;0.82;;
53253;SDS011;39148;53.332;6.922;2022-10-16T02:51:43;2.30;;;0.68;;
53253;SDS011;39148;53.332;6.922;2022-10-16T02:54:08;2.08;;;0.98;;
53253;SDS011;39148;53.332;6.922;2022-10-16T02:56:34;4.75;;;0.93;;
53253;SDS011;39148;53.332;6.922;2022-10-16T02:59:00;3.40;;;0.70;;
53253;SDS011;39148;53.332;6.922;2022-10-16T03:01:25;4.38;;;0.80;;
53253;SDS011;39148;53.332;6.922;2022-10-16T03:03:51;2.83;;;0.85;;
53253;SDS011;39148;53.332;6.922;2022-10-16T03:06:17;2.75;;;0.65;;
53253;SDS011;39148;53.332;6.922;2022-10-16T03:08:42;2.60;;;0.60;;
53253;SDS011;39148;53.332;6.922;2022-10-16T03:11:08;3.33;;;0.80;;
53253;SDS011;39148;53.332;6.922;2022-10-16T03:13:34;2.13;;;0.70;;
53253;SDS011;39148;53.332;6.922;2022-10-16T03:15:59;3.97;;;0.80;;
53253;SDS011;39148;53.332;6.922;2022-10-16T03:18:25;4.13;;;0.75;;
53253;SDS011;39148;53.332;6.922;2022-10-16T03:20:51;2.67;;;0.80;;
53253;SDS011;39148;53.332;6.922;2022-10-16T03:23:16;4.15;;;0.70;;
53253;SDS011;39148;53.332;6.922;2022-10-16T03:25:45;2.20;;;0.70;;
53253;SDS011;39148;53.332;6.922;2022-10-16T03:28:11;3.83;;;0.80;;
53253;SDS011;39148;53.332;6.922;2022-10-16T03:30:36;4.60;;;0.70;;
53253;SDS011;39148;53.332;6.922;2022-10-16T03:33:04;1.38;;;0.57;;
53253;SDS011;39148;53.332;6.922;2022-10-16T03:35:30;2.08;;;0.73;;
53253;SDS011;39148;53.332;6.922;2022-10-16T03:37:56;2.92;;;0.70;;
53253;SDS011;39148;53.332;6.922;2022-10-16T03:40:22;3.15;;;1.02;;
53253;SDS011;39148;53.332;6.922;2022-10-16T03:42:48;3.92;;;0.70;;
53253;SDS011;39148;53.332;6.922;2022-10-16T03:45:13;3.15;;;0.82;;
53253;SDS011;39148;53.332;6.922;2022-10-16T03:47:39;2.63;;;0.80;;
53253;SDS011;39148;53.332;6.922;2022-10-16T03:50:05;3.55;;;0.90;;
53253;SDS011;39148;53.332;6.922;2022-10-16T03:52:32;2.92;;;0.73;;
53253;SDS011;39148;53.332;6.922;2022-10-16T03:54:58;3.63;;;0.98;;
53253;SDS011;39148;53.332;6.922;2022-10-16T03:57:24;2.38;;;0.65;;
53253;SDS011;39148;53.332;6.922;2022-10-16T03:59:49;2.85;;;0.70;;
53253;SDS011;39148;53.332;6.922;2022-10-16T04:02:15;5.05;;;1.00;;
53253;SDS011;39148;53.332;6.922;2022-10-16T04:04:41;3.20;;;0.75;;
53253;SDS011;39148;53.332;6.922;2022-10-16T04:07:07;2.78;;;0.80;;
53253;SDS011;39148;53.332;6.922;2022-10-16T04:09:33;2.20;;;0.52;;
53253;SDS011;39148;53.332;6.922;2022-10-16T04:11:58;3.25;;;0.80;;
53253;SDS011;39148;53.332;6.922;2022-10-16T04:14:24;2.35;;;0.70;;
53253;SDS011;39148;53.332;6.922;2022-10-16T04:16:50;2.15;;;0.52;;
53253;SDS011;39148;53.332;6.922;2022-10-16T04:19:16;4.90;;;1.52;;
53253;SDS011;39148;53.332;6.922;2022-10-16T04:21:41;2.42;;;0.52;;
53253;SDS011;39148;53.332;6.922;2022-10-16T04:24:07;2.03;;;0.68;;
53253;SDS011;39148;53.332;6.922;2022-10-16T04:26:33;2.70;;;0.70;;
53253;SDS011;39148;53.332;6.922;2022-10-16T04:28:58;4.45;;;0.70;;
53253;SDS011;39148;53.332;6.922;2022-10-16T04:31:24;1.65;;;0.65;;
53253;SDS011;39148;53.332;6.922;2022-10-16T04:33:49;4.82;;;0.80;;
53253;SDS011;39148;53.332;6.922;2022-10-16T04:36:15;2.83;;;0.60;;
53253;SDS011;39148;53.332;6.922;2022-10-16T04:38:41;2.50;;;1.00;;
53253;SDS011;39148;53.332;6.922;2022-10-16T04:41:07;2.92;;;0.68;;
53253;SDS011;39148;53.332;6.922;2022-10-16T04:43:33;3.25;;;0.80;;
53253;SDS011;39148;53.332;6.922;2022-10-16T04:45:59;2.20;;;0.80;;
53253;SDS011;39148;53.332;6.922;2022-10-16T04:48:24;2.42;;;0.77;;
53253;SDS011;39148;53.332;6.922;2022-10-16T04:50:50;3.78;;;1.00;;
53253;SDS011;39148;53.332;6.922;2022-10-16T04:53:16;2.47;;;0.70;;
53253;SDS011;39148;53.332;6.922;2022-10-16T04:55:42;2.92;;;0.80;;
53253;SDS011;39148;53.332;6.922;2022-10-16T04:58:08;4.68;;;0.90;;
53253;SDS011;39148;53.332;6.922;2022-10-16T05:00:35;2.80;;;1.02;;
53253;SDS011;39148;53.332;6.922;2022-10-16T05:03:01;2.42;;;0.80;;
53253;SDS011;39148;53.332;6.922;2022-10-16T05:05:30;2.28;;;0.90;;
53253;SDS011;39148;53.332;6.922;2022-10-16T05:07:56;3.55;;;0.80;;
53253;SDS011;39148;53.332;6.922;2022-10-16T05:10:22;1.73;;;0.68;;
53253;SDS011;39148;53.332;6.922;2022-10-16T05:12:48;2.00;;;0.80;;
53253;SDS011;39148;53.332;6.922;2022-10-16T05:15:13;2.17;;;0.60;;
53253;SDS011;39148;53.332;6.922;2022-10-16T05:17:39;2.72;;;0.80;;
53253;SDS011;39148;53.332;6.922;2022-10-16T05:20:05;1.80;;;0.60;;
53253;SDS011;39148;53.332;6.922;2022-10-16T05:22:31;3.25;;;0.90;;
53253;SDS011;39148;53.332;6.922;2022-10-16T05:24:57;3.63;;;0.60;;
53253;SDS011;39148;53.332;6.922;2022-10-16T05:27:22;3.95;;;1.00;;
53253;SDS011;39148;53.332;6.922;2022-10-16T05:29:48;3.67;;;1.17;;
53253;SDS011;39148;53.332;6.922;2022-10-16T05:32:14;2.38;;;0.63;;
53253;SDS011;39148;53.332;6.922;2022-10-16T05:34:41;3.40;;;0.70;;
53253;SDS011;39148;53.332;6.922;2022-10-16T05:37:07;3.42;;;0.90;;
53253;SDS011;39148;53.332;6.922;2022-10-16T05:39:33;4.72;;;0.98;;
53253;SDS011;39148;53.332;6.922;2022-10-16T05:41:58;2.75;;;0.90;;
53253;SDS011;39148;53.332;6.922;2022-10-16T05:44:24;3.10;;;0.80;;
53253;SDS011;39148;53.332;6.922;2022-10-16T05:46:50;4.93;;;0.82;;
53253;SDS011;39148;53.332;6.922;2022-10-16T05:49:15;2.97;;;0.77;;
53253;SDS011;39148;53.332;6.922;2022-10-16T05:51:41;3.15;;;0.82;;
53253;SDS011;39148;53.332;6.922;2022-10-16T05:54:08;2.22;;;0.70;;
53253;SDS011;39148;53.332;6.922;2022-10-16T05:56:34;2.75;;;0.70;;
53253;SDS011;39148;53.332;6.922;2022-10-16T05:58:59;2.45;;;0.85;;
53253;SDS011;39148;53.332;6.922;2022-10-16T06:01:25;2.35;;;0.60;;
53253;SDS011;39148;53.332;6.922;2022-10-16T06:03:51;3.15;;;0.68;;
53253;SDS011;39148;53.332;6.922;2022-10-16T06:06:18;2.17;;;0.60;;
53253;SDS011;39148;53.332;6.922;2022-10-16T06:08:46;1.85;;;0.63;;
53253;SDS011;39148;53.332;6.922;2022-10-16T06:11:16;2.65;;;0.80;;
53253;SDS011;39148;53.332;6.922;2022-10-16T06:13:50;3.33;;;0.90;;
53253;SDS011;39148;53.332;6.922;2022-10-16T06:16:17;3.95;;;0.93;;
53253;SDS011;39148;53.332;6.922;2022-10-16T06:18:43;2.85;;;0.88;;
53253;SDS011;39148;53.332;6.922;2022-10-16T06:21:16;2.13;;;0.65;;
53253;SDS011;39148;53.332;6.922;2022-10-16T06:23:43;4.13;;;1.35;;
53253;SDS011;39148;53.332;6.922;2022-10-16T06:26:12;3.00;;;0.77;;
53253;SDS011;39148;53.332;6.922;2022-10-16T06:28:39;1.80;;;0.68;;
53253;SDS011;39148;53.332;6.922;2022-10-16T06:31:06;3.20;;;0.80;;
53253;SDS011;39148;53.332;6.922;2022-10-16T06:33:34;3.20;;;0.85;;
53253;SDS011;39148;53.332;6.922;2022-10-16T06:36:03;3.88;;;0.82;;
53253;SDS011;39148;53.332;6.922;2022-10-16T06:38:30;3.88;;;0.98;;
53253;SDS011;39148;53.332;6.922;2022-10-16T06:40:56;3.72;;;0.90;;
53253;SDS011;39148;53.332;6.922;2022-10-16T06:43:22;3.80;;;1.17;;
53253;SDS011;39148;53.332;6.922;2022-10-16T06:45:51;5.10;;;1.10;;
53253;SDS011;39148;53.332;6.922;2022-10-16T06:48:21;2.20;;;0.90;;
53253;SDS011;39148;53.332;6.922;2022-10-16T06:51:08;3.53;;;0.88;;
53253;SDS011;39148;53.332;6.922;2022-10-16T06:53:35;2.55;;;0.90;;
53253;SDS011;39148;53.332;6.922;2022-10-16T06:56:13;2.67;;;0.80;;
53253;SDS011;39148;53.332;6.922;2022-10-16T06:58:41;3.58;;;1.05;;
53253;SDS011;39148;53.332;6.922;2022-10-16T07:01:08;2.92;;;1.02;;
53253;SDS011;39148;53.332;6.922;2022-10-16T07:03:41;2.42;;;0.90;;
53253;SDS011;39148;53.332;6.922;2022-10-16T07:06:09;2.17;;;0.70;;
53253;SDS011;39148;53.332;6.922;2022-10-16T07:08:37;2.65;;;0.90;;
53253;SDS011;39148;53.332;6.922;2022-10-16T07:11:05;4.20;;;1.08;;
53253;SDS011;39148;53.332;6.922;2022-10-16T07:13:33;2.95;;;0.90;;
53253;SDS011;39148;53.332;6.922;2022-10-16T07:16:09;5.60;;;1.40;;
53253;SDS011;39148;53.332;6.922;2022-10-16T07:18:39;4.88;;;1.00;;
53253;SDS011;39148;53.332;6.922;2022-10-16T07:21:08;3.25;;;0.90;;
53253;SDS011;39148;53.332;6.922;2022-10-16T07:23:36;2.40;;;0.90;;
53253;SDS011;39148;53.332;6.922;2022-10-16T07:26:03;3.53;;;1.00;;
53253;SDS011;39148;53.332;6.922;2022-10-16T07:28:29;6.20;;;1.00;;
53253;SDS011;39148;53.332;6.922;2022-10-16T07:30:55;3.50;;;1.10;;
53253;SDS011;39148;53.332;6.922;2022-10-16T07:33:24;3.45;;;0.90;;
53253;SDS011;39148;53.332;6.922;2022-10-16T07:35:50;7.78;;;1.42;;
53253;SDS011;39148;53.332;6.922;2022-10-16T07:38:17;4.57;;;1.20;;
53253;SDS011;39148;53.332;6.922;2022-10-16T07:40:44;3.88;;;1.08;;
53253;SDS011;39148;53.332;6.922;2022-10-16T07:43:10;4.45;;;1.10;;
53253;SDS011;39148;53.332;6.922;2022-10-16T07:45:35;2.92;;;0.90;;
53253;SDS011;39148;53.332;6.922;2022-10-16T07:48:01;3.88;;;1.25;;
53253;SDS011;39148;53.332;6.922;2022-10-16T07:50:27;4.85;;;1.00;;
53253;SDS011;39148;53.332;6.922;2022-10-16T07:52:53;2.92;;;0.98;;
53253;SDS011;39148;53.332;6.922;2022-10-16T07:55:19;2.85;;;0.70;;
53253;SDS011;39148;53.332;6.922;2022-10-16T07:57:44;5.35;;;1.30;;
53253;SDS011;39148;53.332;6.922;2022-10-16T08:00:10;3.38;;;0.90;;
53253;SDS011;39148;53.332;6.922;2022-10-16T08:02:41;3.25;;;1.05;;
53253;SDS011;39148;53.332;6.922;2022-10-16T08:05:07;2.38;;;0.80;;
53253;SDS011;39148;53.332;6.922;2022-10-16T08:07:33;3.95;;;0.95;;
53253;SDS011;39148;53.332;6.922;2022-10-16T08:09:59;4.63;;;1.10;;
53253;SDS011;39148;53.332;6.922;2022-10-16T08:12:25;3.92;;;1.08;;
53253;SDS011;39148;53.332;6.922;2022-10-16T08:14:51;4.22;;;1.30;;
53253;SDS011;39148;53.332;6.922;2022-10-16T08:17:17;3.95;;;1.33;;
53253;SDS011;39148;53.332;6.922;2022-10-16T08:19:46;3.75;;;0.75;;
53253;SDS011;39148;53.332;6.922;2022-10-16T08:22:12;5.18;;;1.10;;
53253;SDS011;39148;53.332;6.922;2022-10-16T08:24:41;4.15;;;0.90;;
53253;SDS011;39148;53.332;6.922;2022-10-16T08:27:07;4.50;;;1.15;;
53253;SDS011;39148;53.332;6.922;2022-10-16T08:29:34;4.05;;;1.00;;
53253;SDS011;39148;53.332;6.922;2022-10-16T08:31:59;5.95;;;0.95;;
53253;SDS011;39148;53.332;6.922;2022-10-16T08:34:25;4.63;;;0.98;;
53253;SDS011;39148;53.332;6.922;2022-10-16T08:36:52;4.75;;;1.20;;
53253;SDS011;39148;53.332;6.922;2022-10-16T08:39:19;2.97;;;0.85;;
53253;SDS011;39148;53.332;6.922;2022-10-16T08:47:53;3.05;;;0.88;;
53253;SDS011;39148;53.332;6.922;2022-10-16T08:50:39;2.85;;;1.00;;
53253;SDS011;39148;53.332;6.922;2022-10-16T08:53:05;3.35;;;1.13;;
53253;SDS011;39148;53.332;6.922;2022-10-16T08:55:41;2.38;;;0.85;;
53253;SDS011;39148;53.332;6.922;2022-10-16T08:58:17;5.45;;;0.93;;
53253;SDS011;39148;53.332;6.922;2022-10-16T09:00:45;2.85;;;0.73;;
53253;SDS011;39148;53.332;6.922;2022-10-16T09:22:41;6.05;;;1.20;;
53253;SDS011;39148;53.332;6.922;2022-10-16T09:25:14;5.30;;;0.80;;
53253;SDS011;39148;53.332;6.922;2022-10-16T09:27:45;4.40;;;0.80;;
53253;SDS011;39148;53.332;6.922;2022-10-16T09:30:17;3.42;;;0.73;;
53253;SDS011;39148;53.332;6.922;2022-10-16T09:32:45;4.93;;;1.45;;
53253;SDS011;39148;53.332;6.922;2022-10-16T09:35:21;5.53;;;0.80;;
53253;SDS011;39148;53.332;6.922;2022-10-16T09:37:52;4.22;;;1.05;;
53253;SDS011;39148;53.332;6.922;2022-10-16T09:40:26;4.00;;;0.75;;
53253;SDS011;39148;53.332;6.922;2022-10-16T09:46:02;3.33;;;0.63;;
53253;SDS011;39148;53.332;6.922;2022-10-16T09:48:30;4.75;;;1.00;;
53253;SDS011;39148;53.332;6.922;2022-10-16T09:51:15;4.32;;;1.13;;
53253;SDS011;39148;53.332;6.922;2022-10-16T09:53:57;8.43;;;1.17;;
53253;SDS011;39148;53.332;6.922;2022-10-16T09:56:27;5.13;;;0.90;;
53253;SDS011;39148;53.332;6.922;2022-10-16T09:58:56;7.72;;;1.13;;
53253;SDS011;39148;53.332;6.922;2022-10-16T10:01:26;4.65;;;1.10;;
53253;SDS011;39148;53.332;6.922;2022-10-16T10:04:14;3.40;;;0.70;;
53253;SDS011;39148;53.332;6.922;2022-10-16T10:06:41;4.43;;;0.90;;
53253;SDS011;39148;53.332;6.922;2022-10-16T10:22:23;4.32;;;0.70;;
53253;SDS011;39148;53.332;6.922;2022-10-16T10:24:59;3.80;;;0.80;;
53253;SDS011;39148;53.332;6.922;2022-10-16T11:03:46;9.75;;;1.30;;
53253;SDS011;39148;53.332;6.922;2022-10-16T11:06:40;6.60;;;1.23;;
53253;SDS011;39148;53.332;6.922;2022-10-16T11:11:49;8.25;;;1.80;;
53253;SDS011;39148;53.332;6.922;2022-10-16T11:14:58;7.05;;;1.45;;
53253;SDS011;39148;53.332;6.922;2022-10-16T11:17:23;6.75;;;1.17;;
53253;SDS011;39148;53.332;6.922;2022-10-16T11:20:02;10.85;;;1.60;;
53253;SDS011;39148;53.332;6.922;2022-10-16T11:22:54;9.02;;;1.73;;
53253;SDS011;39148;53.332;6.922;2022-10-16T11:33:32;8.18;;;1.27;;
53253;SDS011;39148;53.332;6.922;2022-10-16T11:36:25;6.70;;;1.20;;
53253;SDS011;39148;53.332;6.922;2022-10-16T11:41:42;7.50;;;1.05;;
53253;SDS011;39148;53.332;6.922;2022-10-16T11:44:14;5.82;;;1.20;;
53253;SDS011;39148;53.332;6.922;2022-10-16T11:46:50;8.25;;;1.90;;
53253;SDS011;39148;53.332;6.922;2022-10-16T11:49:26;6.80;;;1.17;;
53253;SDS011;39148;53.332;6.922;2022-10-16T11:52:00;9.07;;;1.60;;
53253;SDS011;39148;53.332;6.922;2022-10-16T11:54:31;9.98;;;1.50;;
53253;SDS011;39148;53.332;6.922;2022-10-16T11:57:13;7.50;;;1.52;;
53253;SDS011;39148;53.332;6.922;2022-10-16T12:00:24;7.30;;;1.20;;
53253;SDS011;39148;53.332;6.922;2022-10-16T12:08:34;5.60;;;0.90;;
53253;SDS011;39148;53.332;6.922;2022-10-16T12:11:08;7.47;;;1.17;;
53253;SDS011;39148;53.332;6.922;2022-10-16T12:14:04;7.28;;;1.23;;
53253;SDS011;39148;53.332;6.922;2022-10-16T12:19:20;9.50;;;1.33;;
53253;SDS011;39148;53.332;6.922;2022-10-16T12:21:47;9.68;;;1.40;;
53253;SDS011;39148;53.332;6.922;2022-10-16T12:27:03;8.65;;;1.45;;
53253;SDS011;39148;53.332;6.922;2022-10-16T12:29:46;8.68;;;1.40;;
53253;SDS011;39148;53.332;6.922;2022-10-16T12:32:24;11.68;;;1.95;;
53253;SDS011;39148;53.332;6.922;2022-10-16T12:34:52;6.97;;;1.00;;
53253;SDS011;39148;53.332;6.922;2022-10-16T12:37:21;7.05;;;1.27;;
53253;SDS011;39148;53.332;6.922;2022-10-16T12:39:54;6.30;;;1.20;;
53253;SDS011;39148;53.332;6.922;2022-10-16T12:44:49;8.85;;;1.33;;
53253;SDS011;39148;53.332;6.922;2022-10-16T12:47:35;8.15;;;1.45;;
53253;SDS011;39148;53.332;6.922;2022-10-16T12:50:03;9.55;;;1.25;;
53253;SDS011;39148;53.332;6.922;2022-10-16T12:52:52;6.72;;;1.17;;
53253;SDS011;39148;53.332;6.922;2022-10-16T12:55:19;9.15;;;1.15;;
53253;SDS011;39148;53.332;6.922;2022-10-16T13:00:57;7.25;;;1.10;;
53253;SDS011;39148;53.332;6.922;2022-10-16T13:09:14;5.47;;;1.00;;
53253;SDS011;39148;53.332;6.922;2022-10-16T13:17:28;9.27;;;1.98;;
53253;SDS011;39148;53.332;6.922;2022-10-16T13:20:20;7.82;;;1.27;;
53253;SDS011;39148;53.332;6.922;2022-10-16T13:28:14;7.75;;;1.45;;
53253;SDS011;39148;53.332;6.922;2022-10-16T13:31:00;8.45;;;1.42;;
53253;SDS011;39148;53.332;6.922;2022-10-16T13:33:33;8.93;;;1.35;;
53253;SDS011;39148;53.332;6.922;2022-10-16T13:36:17;7.25;;;1.13;;
53253;SDS011;39148;53.332;6.922;2022-10-16T13:38:46;8.25;;;1.23;;
53253;SDS011;39148;53.332;6.922;2022-10-16T13:41:18;9.50;;;1.55;;
53253;SDS011;39148;53.332;6.922;2022-10-16T13:43:51;5.93;;;1.00;;
53253;SDS011;39148;53.332;6.922;2022-10-16T13:46:19;7.68;;;1.70;;
53253;SDS011;39148;53.332;6.922;2022-10-16T13:48:57;7.07;;;1.13;;
53253;SDS011;39148;53.332;6.922;2022-10-16T13:51:29;6.32;;;1.00;;
53253;SDS011;39148;53.332;6.922;2022-10-16T13:53:56;9.02;;;1.30;;
53253;SDS011;39148;53.332;6.922;2022-10-16T13:56:27;9.35;;;1.38;;
53253;SDS011;39148;53.332;6.922;2022-10-16T14:01:57;5.68;;;1.08;;
53253;SDS011;39148;53.332;6.922;2022-10-16T14:04:26;8.13;;;1.40;;
53253;SDS011;39148;53.332;6.922;2022-10-16T14:06:56;5.38;;;1.00;;
53253;SDS011;39148;53.332;6.922;2022-10-16T14:09:28;11.65;;;2.30;;
53253;SDS011;39148;53.332;6.922;2022-10-16T14:11:56;7.40;;;1.20;;
53253;SDS011;39148;53.332;6.922;2022-10-16T14:14:33;6.88;;;1.10;;
53253;SDS011;39148;53.332;6.922;2022-10-16T14:17:05;8.23;;;1.00;;
53253;SDS011;39148;53.332;6.922;2022-10-16T14:19:31;8.32;;;1.38;;
53253;SDS011;39148;53.332;6.922;2022-10-16T14:21:57;7.75;;;1.20;;
53253;SDS011;39148;53.332;6.922;2022-10-16T14:24:34;6.63;;;1.10;;
53253;SDS011;39148;53.332;6.922;2022-10-16T14:27:00;7.65;;;1.27;;
53253;SDS011;39148;53.332;6.922;2022-10-16T14:29:27;6.45;;;0.95;;
53253;SDS011;39148;53.332;6.922;2022-10-16T14:32:03;6.38;;;1.58;;
53253;SDS011;39148;53.332;6.922;2022-10-16T14:34:31;5.78;;;1.02;;
53253;SDS011;39148;53.332;6.922;2022-10-16T14:37:40;6.53;;;1.00;;
53253;SDS011;39148;53.332;6.922;2022-10-16T14:39:52;5.72;;;1.10;;
53253;SDS011;39148;53.332;6.922;2022-10-16T14:42:20;5.20;;;0.90;;
53253;SDS011;39148;53.332;6.922;2022-10-16T14:44:49;6.53;;;1.25;;
53253;SDS011;39148;53.332;6.922;2022-10-16T14:47:18;6.47;;;1.00;;
53253;SDS011;39148;53.332;6.922;2022-10-16T14:49:50;8.52;;;1.02;;
53253;SDS011;39148;53.332;6.922;2022-10-16T14:52:16;5.57;;;0.93;;
53253;SDS011;39148;53.332;6.922;2022-10-16T14:54:43;9.40;;;1.42;;
53253;SDS011;39148;53.332;6.922;2022-10-16T14:57:22;5.83;;;1.00;;
53253;SDS011;39148;53.332;6.922;2022-10-16T14:59:51;7.43;;;1.10;;
53253;SDS011;39148;53.332;6.922;2022-10-16T15:04:45;7.13;;;1.25;;
53253;SDS011;39148;53.332;6.922;2022-10-16T15:07:12;5.47;;;0.93;;
53253;SDS011;39148;53.332;6.922;2022-10-16T15:09:37;6.50;;;1.63;;
53253;SDS011;39148;53.332;6.922;2022-10-16T15:12:03;7.95;;;1.25;;
53253;SDS011;39148;53.332;6.922;2022-10-16T15:14:29;5.20;;;1.02;;
53253;SDS011;39148;53.332;6.922;2022-10-16T15:16:54;8.75;;;1.50;;
53253;SDS011;39148;53.332;6.922;2022-10-16T15:19:20;7.00;;;1.20;;
53253;SDS011;39148;53.332;6.922;2022-10-16T15:21:46;4.30;;;0.90;;
53253;SDS011;39148;53.332;6.922;2022-10-16T15:24:13;7.03;;;1.15;;
53253;SDS011;39148;53.332;6.922;2022-10-16T15:26:39;6.65;;;1.10;;
53253;SDS011;39148;53.332;6.922;2022-10-16T15:29:05;6.93;;;1.05;;
53253;SDS011;39148;53.332;6.922;2022-10-16T15:31:31;6.65;;;1.02;;
53253;SDS011;39148;53.332;6.922;2022-10-16T15:33:57;6.82;;;1.20;;
53253;SDS011;39148;53.332;6.922;2022-10-16T15:36:27;8.13;;;1.30;;
53253;SDS011;39148;53.332;6.922;2022-10-16T15:38:54;5.57;;;0.82;;
53253;SDS011;39148;53.332;6.922;2022-10-16T15:41:21;9.90;;;1.63;;
53253;SDS011;39148;53.332;6.922;2022-10-16T15:43:50;6.80;;;0.98;;
53253;SDS011;39148;53.332;6.922;2022-10-16T15:46:19;7.28;;;1.30;;
53253;SDS011;39148;53.332;6.922;2022-10-16T15:48:50;6.40;;;1.65;;
53253;SDS011;39148;53.332;6.922;2022-10-16T15:51:20;7.60;;;1.30;;
53253;SDS011;39148;53.332;6.922;2022-10-16T15:53:46;8.10;;;1.20;;
53253;SDS011;39148;53.332;6.922;2022-10-16T15:56:12;6.75;;;1.08;;
53253;SDS011;39148;53.332;6.922;2022-10-16T15:58:38;7.70;;;1.35;;
53253;SDS011;39148;53.332;6.922;2022-10-16T16:01:04;6.38;;;1.35;;
53253;SDS011;39148;53.332;6.922;2022-10-16T16:03:31;5.50;;;1.05;;
53253;SDS011;39148;53.332;6.922;2022-10-16T16:05:57;8.55;;;1.13;;
53253;SDS011;39148;53.332;6.922;2022-10-16T16:08:28;5.93;;;1.00;;
53253;SDS011;39148;53.332;6.922;2022-10-16T16:11:00;6.60;;;0.90;;
53253;SDS011;39148;53.332;6.922;2022-10-16T16:13:27;5.70;;;1.30;;
53253;SDS011;39148;53.332;6.922;2022-10-16T16:15:53;5.20;;;0.95;;
53253;SDS011;39148;53.332;6.922;2022-10-16T16:18:18;6.03;;;1.00;;
53253;SDS011;39148;53.332;6.922;2022-10-16T16:20:44;7.53;;;1.35;;
53253;SDS011;39148;53.332;6.922;2022-10-16T16:23:10;5.43;;;1.15;;
53253;SDS011;39148;53.332;6.922;2022-10-16T16:25:35;5.75;;;1.10;;
53253;SDS011;39148;53.332;6.922;2022-10-16T16:28:01;6.07;;;1.13;;
53253;SDS011;39148;53.332;6.922;2022-10-16T16:30:27;4.15;;;0.88;;
53253;SDS011;39148;53.332;6.922;2022-10-16T16:32:53;5.18;;;1.10;;
53253;SDS011;39148;53.332;6.922;2022-10-16T16:35:18;7.97;;;1.30;;
53253;SDS011;39148;53.332;6.922;2022-10-16T16:37:44;7.43;;;1.02;;
53253;SDS011;39148;53.332;6.922;2022-10-16T16:40:11;4.50;;;1.00;;
53253;SDS011;39148;53.332;6.922;2022-10-16T16:42:37;6.55;;;0.90;;
53253;SDS011;39148;53.332;6.922;2022-10-16T16:45:02;6.10;;;1.17;;
53253;SDS011;39148;53.332;6.922;2022-10-16T16:47:28;5.15;;;1.10;;
53253;SDS011;39148;53.332;6.922;2022-10-16T16:49:54;6.35;;;1.10;;
53253;SDS011;39148;53.332;6.922;2022-10-16T16:52:20;7.15;;;1.20;;
53253;SDS011;39148;53.332;6.922;2022-10-16T16:54:47;6.82;;;1.13;;
53253;SDS011;39148;53.332;6.922;2022-10-16T16:57:17;5.88;;;1.23;;
53253;SDS011;39148;53.332;6.922;2022-10-16T16:59:43;6.47;;;1.27;;
53253;SDS011;39148;53.332;6.922;2022-10-16T17:02:09;5.05;;;1.33;;
53253;SDS011;39148;53.332;6.922;2022-10-16T17:04:35;5.10;;;1.10;;
53253;SDS011;39148;53.332;6.922;2022-10-16T17:07:01;7.70;;;1.35;;
53253;SDS011;39148;53.332;6.922;2022-10-16T17:09:26;6.25;;;1.55;;
53253;SDS011;39148;53.332;6.922;2022-10-16T17:11:52;5.90;;;1.60;;
53253;SDS011;39148;53.332;6.922;2022-10-16T17:14:18;5.30;;;1.13;;
53253;SDS011;39148;53.332;6.922;2022-10-16T17:16:43;6.43;;;1.27;;
53253;SDS011;39148;53.332;6.922;2022-10-16T17:19:11;3.17;;;0.90;;
53253;SDS011;39148;53.332;6.922;2022-10-16T17:21:38;6.50;;;1.35;;
53253;SDS011;39148;53.332;6.922;2022-10-16T17:24:04;5.00;;;1.30;;
53253;SDS011;39148;53.332;6.922;2022-10-16T17:26:31;5.22;;;1.23;;
53253;SDS011;39148;53.332;6.922;2022-10-16T17:28:58;5.45;;;1.17;;
53253;SDS011;39148;53.332;6.922;2022-10-16T17:31:26;7.40;;;1.40;;
53253;SDS011;39148;53.332;6.922;2022-10-16T17:33:54;6.60;;;1.45;;
53253;SDS011;39148;53.332;6.922;2022-10-16T17:36:20;7.75;;;1.73;;
53253;SDS011;39148;53.332;6.922;2022-10-16T17:38:46;6.18;;;1.90;;